sensor_id;sensor_type;location;lat;lon;timestamp;P1;durP1;ratioP1;P2;durP2;ratioP2
38529;SDS011;24301;54.332;48.386;2023-09-19T00:00:37;5.90;;;4.50;;
38529;SDS011;24301;54.332;48.386;2023-09-19T00:03:03;7.93;;;5.25;;
38529;SDS011;24301;54.332;48.386;2023-09-19T00:05:30;5.53;;;4.60;;
38529;SDS011;24301;54.332;48.386;2023-09-19T00:08:00;9.35;;;4.63;;
38529;SDS011;24301;54.332;48.386;2023-09-19T00:10:30;5.68;;;4.53;;
38529;SDS011;24301;54.332;48.386;2023-09-19T00:12:57;5.57;;;4.63;;
38529;SDS011;24301;54.332;48.386;2023-09-19T00:15:25;7.28;;;4.78;;
38529;SDS011;24301;54.332;48.386;2023-09-19T00:17:56;7.15;;;4.95;;
38529;SDS011;24301;54.332;48.386;2023-09-19T00:20:22;7.53;;;5.25;;
38529;SDS011;24301;54.332;48.386;2023-09-19T00:22:49;7.35;;;4.55;;
38529;SDS011;24301;54.332;48.386;2023-09-19T00:25:17;5.43;;;4.50;;
38529;SDS011;24301;54.332;48.386;2023-09-19T00:27:44;6.25;;;4.05;;
38529;SDS011;24301;54.332;48.386;2023-09-19T00:30:13;7.07;;;4.53;;
38529;SDS011;24301;54.332;48.386;2023-09-19T00:32:41;6.78;;;4.93;;
38529;SDS011;24301;54.332;48.386;2023-09-19T00:35:08;6.03;;;4.07;;
38529;SDS011;24301;54.332;48.386;2023-09-19T00:37:37;8.57;;;5.25;;
38529;SDS011;24301;54.332;48.386;2023-09-19T00:40:05;6.78;;;4.25;;
38529;SDS011;24301;54.332;48.386;2023-09-19T00:42:34;8.55;;;4.72;;
38529;SDS011;24301;54.332;48.386;2023-09-19T00:45:04;5.82;;;4.15;;
38529;SDS011;24301;54.332;48.386;2023-09-19T00:47:31;5.00;;;3.90;;
38529;SDS011;24301;54.332;48.386;2023-09-19T00:49:57;5.68;;;4.47;;
38529;SDS011;24301;54.332;48.386;2023-09-19T00:52:24;5.68;;;4.50;;
38529;SDS011;24301;54.332;48.386;2023-09-19T00:54:50;7.22;;;4.35;;
38529;SDS011;24301;54.332;48.386;2023-09-19T00:57:17;6.43;;;4.03;;
38529;SDS011;24301;54.332;48.386;2023-09-19T00:59:45;6.32;;;4.28;;
38529;SDS011;24301;54.332;48.386;2023-09-19T01:02:18;4.97;;;3.75;;
38529;SDS011;24301;54.332;48.386;2023-09-19T01:04:44;6.55;;;4.07;;
38529;SDS011;24301;54.332;48.386;2023-09-19T01:07:10;5.03;;;4.03;;
38529;SDS011;24301;54.332;48.386;2023-09-19T01:09:36;5.60;;;3.80;;
38529;SDS011;24301;54.332;48.386;2023-09-19T01:12:04;5.53;;;3.72;;
38529;SDS011;24301;54.332;48.386;2023-09-19T01:17:27;6.15;;;4.45;;
38529;SDS011;24301;54.332;48.386;2023-09-19T01:20:03;7.38;;;4.10;;
38529;SDS011;24301;54.332;48.386;2023-09-19T01:23:06;5.18;;;3.95;;
38529;SDS011;24301;54.332;48.386;2023-09-19T01:26:04;5.88;;;3.92;;
38529;SDS011;24301;54.332;48.386;2023-09-19T01:31:28;6.63;;;4.15;;
38529;SDS011;24301;54.332;48.386;2023-09-19T01:34:00;6.05;;;3.88;;
38529;SDS011;24301;54.332;48.386;2023-09-19T01:36:33;5.90;;;4.22;;
38529;SDS011;24301;54.332;48.386;2023-09-19T01:39:03;5.32;;;3.75;;
38529;SDS011;24301;54.332;48.386;2023-09-19T01:44:36;7.43;;;4.15;;
38529;SDS011;24301;54.332;48.386;2023-09-19T01:47:24;5.05;;;4.18;;
38529;SDS011;24301;54.332;48.386;2023-09-19T02:00:06;7.72;;;4.40;;
38529;SDS011;24301;54.332;48.386;2023-09-19T02:02:42;9.18;;;4.93;;
38529;SDS011;24301;54.332;48.386;2023-09-19T02:05:11;6.05;;;4.68;;
38529;SDS011;24301;54.332;48.386;2023-09-19T02:07:41;7.70;;;5.40;;
38529;SDS011;24301;54.332;48.386;2023-09-19T02:10:07;6.68;;;4.35;;
38529;SDS011;24301;54.332;48.386;2023-09-19T02:12:54;6.10;;;4.10;;
38529;SDS011;24301;54.332;48.386;2023-09-19T02:15:30;9.68;;;4.30;;
38529;SDS011;24301;54.332;48.386;2023-09-19T02:18:00;5.72;;;4.57;;
38529;SDS011;24301;54.332;48.386;2023-09-19T02:20:26;5.72;;;4.80;;
38529;SDS011;24301;54.332;48.386;2023-09-19T02:22:52;7.32;;;5.10;;
38529;SDS011;24301;54.332;48.386;2023-09-19T02:25:38;9.43;;;4.57;;
38529;SDS011;24301;54.332;48.386;2023-09-19T02:28:07;9.70;;;5.25;;
38529;SDS011;24301;54.332;48.386;2023-09-19T02:30:34;6.53;;;4.43;;
38529;SDS011;24301;54.332;48.386;2023-09-19T02:33:01;6.80;;;5.13;;
38529;SDS011;24301;54.332;48.386;2023-09-19T02:35:28;13.18;;;4.95;;
38529;SDS011;24301;54.332;48.386;2023-09-19T02:37:58;7.47;;;5.22;;
38529;SDS011;24301;54.332;48.386;2023-09-19T02:40:24;9.35;;;5.43;;
38529;SDS011;24301;54.332;48.386;2023-09-19T02:42:54;6.53;;;4.82;;
38529;SDS011;24301;54.332;48.386;2023-09-19T02:45:23;7.78;;;4.35;;
38529;SDS011;24301;54.332;48.386;2023-09-19T02:47:50;5.72;;;4.40;;
38529;SDS011;24301;54.332;48.386;2023-09-19T02:50:16;6.05;;;4.15;;
38529;SDS011;24301;54.332;48.386;2023-09-19T02:52:43;7.65;;;4.55;;
38529;SDS011;24301;54.332;48.386;2023-09-19T02:55:12;6.65;;;4.38;;
38529;SDS011;24301;54.332;48.386;2023-09-19T02:57:40;6.10;;;4.43;;
38529;SDS011;24301;54.332;48.386;2023-09-19T03:00:09;5.80;;;3.97;;
38529;SDS011;24301;54.332;48.386;2023-09-19T03:02:36;6.25;;;4.50;;
38529;SDS011;24301;54.332;48.386;2023-09-19T03:05:04;6.90;;;4.25;;
38529;SDS011;24301;54.332;48.386;2023-09-19T03:07:31;6.53;;;4.30;;
38529;SDS011;24301;54.332;48.386;2023-09-19T03:10:00;6.90;;;4.60;;
38529;SDS011;24301;54.332;48.386;2023-09-19T03:12:26;6.03;;;4.40;;
38529;SDS011;24301;54.332;48.386;2023-09-19T03:14:53;6.93;;;3.97;;
38529;SDS011;24301;54.332;48.386;2023-09-19T03:17:19;7.10;;;4.40;;
38529;SDS011;24301;54.332;48.386;2023-09-19T03:19:46;6.68;;;3.92;;
38529;SDS011;24301;54.332;48.386;2023-09-19T03:22:14;5.88;;;3.60;;
38529;SDS011;24301;54.332;48.386;2023-09-19T03:24:40;7.07;;;3.97;;
38529;SDS011;24301;54.332;48.386;2023-09-19T03:27:09;7.60;;;4.00;;
38529;SDS011;24301;54.332;48.386;2023-09-19T03:29:36;6.72;;;4.22;;
38529;SDS011;24301;54.332;48.386;2023-09-19T03:32:03;6.63;;;3.78;;
38529;SDS011;24301;54.332;48.386;2023-09-19T03:34:29;5.68;;;3.70;;
38529;SDS011;24301;54.332;48.386;2023-09-19T03:36:56;6.68;;;3.75;;
38529;SDS011;24301;54.332;48.386;2023-09-19T03:39:22;6.03;;;3.70;;
38529;SDS011;24301;54.332;48.386;2023-09-19T03:41:48;5.55;;;4.25;;
38529;SDS011;24301;54.332;48.386;2023-09-19T03:44:15;7.75;;;4.80;;
38529;SDS011;24301;54.332;48.386;2023-09-19T03:46:41;8.98;;;4.05;;
38529;SDS011;24301;54.332;48.386;2023-09-19T03:49:07;6.82;;;3.70;;
38529;SDS011;24301;54.332;48.386;2023-09-19T03:51:34;5.97;;;3.85;;
38529;SDS011;24301;54.332;48.386;2023-09-19T03:54:00;5.30;;;3.95;;
38529;SDS011;24301;54.332;48.386;2023-09-19T03:56:26;5.72;;;3.63;;
38529;SDS011;24301;54.332;48.386;2023-09-19T04:02:01;5.32;;;3.35;;
38529;SDS011;24301;54.332;48.386;2023-09-19T04:04:32;12.68;;;3.90;;
38529;SDS011;24301;54.332;48.386;2023-09-19T04:07:06;7.45;;;3.70;;
38529;SDS011;24301;54.332;48.386;2023-09-19T04:09:42;7.30;;;4.22;;
38529;SDS011;24301;54.332;48.386;2023-09-19T04:19:05;7.43;;;4.30;;
38529;SDS011;24301;54.332;48.386;2023-09-19T04:21:50;7.60;;;4.00;;
38529;SDS011;24301;54.332;48.386;2023-09-19T04:24:16;4.65;;;3.45;;
38529;SDS011;24301;54.332;48.386;2023-09-19T04:26:49;5.03;;;3.40;;
38529;SDS011;24301;54.332;48.386;2023-09-19T04:29:21;7.03;;;3.28;;
38529;SDS011;24301;54.332;48.386;2023-09-19T04:31:47;4.40;;;3.67;;
38529;SDS011;24301;54.332;48.386;2023-09-19T04:34:13;4.53;;;3.55;;
38529;SDS011;24301;54.332;48.386;2023-09-19T04:36:42;5.38;;;3.10;;
38529;SDS011;24301;54.332;48.386;2023-09-19T04:39:08;3.78;;;3.03;;
38529;SDS011;24301;54.332;48.386;2023-09-19T04:41:36;3.65;;;3.03;;
38529;SDS011;24301;54.332;48.386;2023-09-19T04:44:06;9.63;;;3.85;;
38529;SDS011;24301;54.332;48.386;2023-09-19T04:46:35;5.68;;;3.65;;
38529;SDS011;24301;54.332;48.386;2023-09-19T04:49:01;6.28;;;3.10;;
38529;SDS011;24301;54.332;48.386;2023-09-19T04:51:28;5.03;;;3.33;;
38529;SDS011;24301;54.332;48.386;2023-09-19T04:54:00;6.68;;;3.47;;
38529;SDS011;24301;54.332;48.386;2023-09-19T04:56:26;5.80;;;2.88;;
38529;SDS011;24301;54.332;48.386;2023-09-19T04:58:54;5.13;;;2.92;;
38529;SDS011;24301;54.332;48.386;2023-09-19T05:01:20;4.00;;;2.70;;
38529;SDS011;24301;54.332;48.386;2023-09-19T05:03:48;5.82;;;2.97;;
38529;SDS011;24301;54.332;48.386;2023-09-19T05:06:21;3.80;;;2.67;;
38529;SDS011;24301;54.332;48.386;2023-09-19T05:08:50;6.45;;;3.63;;
38529;SDS011;24301;54.332;48.386;2023-09-19T05:11:20;5.55;;;2.92;;
38529;SDS011;24301;54.332;48.386;2023-09-19T05:13:48;4.40;;;3.25;;
38529;SDS011;24301;54.332;48.386;2023-09-19T05:16:16;4.05;;;2.97;;
38529;SDS011;24301;54.332;48.386;2023-09-19T05:18:42;5.03;;;3.28;;
38529;SDS011;24301;54.332;48.386;2023-09-19T05:21:08;3.58;;;2.83;;
38529;SDS011;24301;54.332;48.386;2023-09-19T05:23:34;3.75;;;2.42;;
38529;SDS011;24301;54.332;48.386;2023-09-19T05:26:00;4.63;;;2.72;;
38529;SDS011;24301;54.332;48.386;2023-09-19T05:28:27;4.55;;;2.58;;
38529;SDS011;24301;54.332;48.386;2023-09-19T05:30:53;8.27;;;2.78;;
38529;SDS011;24301;54.332;48.386;2023-09-19T05:33:19;6.32;;;3.65;;
38529;SDS011;24301;54.332;48.386;2023-09-19T05:35:45;5.97;;;2.63;;
38529;SDS011;24301;54.332;48.386;2023-09-19T05:38:13;5.63;;;2.70;;
38529;SDS011;24301;54.332;48.386;2023-09-19T05:40:44;3.30;;;2.60;;
38529;SDS011;24301;54.332;48.386;2023-09-19T05:43:11;3.80;;;2.42;;
38529;SDS011;24301;54.332;48.386;2023-09-19T05:45:40;7.93;;;2.30;;
38529;SDS011;24301;54.332;48.386;2023-09-19T05:48:08;5.53;;;2.33;;
38529;SDS011;24301;54.332;48.386;2023-09-19T05:50:36;4.45;;;2.47;;
38529;SDS011;24301;54.332;48.386;2023-09-19T05:53:04;3.35;;;2.47;;
38529;SDS011;24301;54.332;48.386;2023-09-19T05:55:30;3.88;;;2.58;;
38529;SDS011;24301;54.332;48.386;2023-09-19T05:57:57;2.67;;;2.38;;
38529;SDS011;24301;54.332;48.386;2023-09-19T06:00:23;5.57;;;2.75;;
38529;SDS011;24301;54.332;48.386;2023-09-19T06:02:56;4.55;;;2.13;;
38529;SDS011;24301;54.332;48.386;2023-09-19T06:05:26;4.28;;;2.53;;
38529;SDS011;24301;54.332;48.386;2023-09-19T06:07:53;3.72;;;2.03;;
38529;SDS011;24301;54.332;48.386;2023-09-19T06:10:20;3.47;;;2.25;;
38529;SDS011;24301;54.332;48.386;2023-09-19T06:12:46;3.25;;;2.03;;
38529;SDS011;24301;54.332;48.386;2023-09-19T06:15:14;2.55;;;2.35;;
38529;SDS011;24301;54.332;48.386;2023-09-19T06:17:42;3.35;;;2.13;;
38529;SDS011;24301;54.332;48.386;2023-09-19T06:20:12;4.15;;;2.20;;
38529;SDS011;24301;54.332;48.386;2023-09-19T06:22:41;5.40;;;2.65;;
38529;SDS011;24301;54.332;48.386;2023-09-19T06:25:09;3.85;;;2.45;;
38529;SDS011;24301;54.332;48.386;2023-09-19T06:27:48;3.25;;;2.05;;
38529;SDS011;24301;54.332;48.386;2023-09-19T06:30:18;2.47;;;2.03;;
38529;SDS011;24301;54.332;48.386;2023-09-19T06:32:44;2.83;;;2.20;;
38529;SDS011;24301;54.332;48.386;2023-09-19T06:35:11;2.72;;;1.70;;
38529;SDS011;24301;54.332;48.386;2023-09-19T06:37:38;3.55;;;1.85;;
38529;SDS011;24301;54.332;48.386;2023-09-19T06:40:11;4.20;;;1.95;;
38529;SDS011;24301;54.332;48.386;2023-09-19T06:42:46;1.98;;;1.67;;
38529;SDS011;24301;54.332;48.386;2023-09-19T06:47:46;3.13;;;1.58;;
38529;SDS011;24301;54.332;48.386;2023-09-19T06:50:17;2.05;;;1.52;;
38529;SDS011;24301;54.332;48.386;2023-09-19T06:52:44;2.55;;;1.80;;
38529;SDS011;24301;54.332;48.386;2023-09-19T06:55:13;3.50;;;1.55;;
38529;SDS011;24301;54.332;48.386;2023-09-19T06:57:42;2.20;;;1.70;;
38529;SDS011;24301;54.332;48.386;2023-09-19T07:00:10;2.60;;;1.70;;
38529;SDS011;24301;54.332;48.386;2023-09-19T07:02:54;6.05;;;1.92;;
38529;SDS011;24301;54.332;48.386;2023-09-19T07:05:24;3.95;;;1.88;;
38529;SDS011;24301;54.332;48.386;2023-09-19T07:07:50;2.08;;;1.65;;
38529;SDS011;24301;54.332;48.386;2023-09-19T07:10:16;3.85;;;1.95;;
38529;SDS011;24301;54.332;48.386;2023-09-19T07:12:44;3.22;;;1.80;;
38529;SDS011;24301;54.332;48.386;2023-09-19T07:15:13;2.33;;;1.50;;
38529;SDS011;24301;54.332;48.386;2023-09-19T07:17:39;2.88;;;1.75;;
38529;SDS011;24301;54.332;48.386;2023-09-19T07:20:05;2.63;;;1.92;;
38529;SDS011;24301;54.332;48.386;2023-09-19T07:22:33;2.60;;;1.33;;
38529;SDS011;24301;54.332;48.386;2023-09-19T07:25:04;2.50;;;1.60;;
38529;SDS011;24301;54.332;48.386;2023-09-19T07:27:30;3.60;;;2.00;;
38529;SDS011;24301;54.332;48.386;2023-09-19T07:29:56;5.47;;;1.60;;
38529;SDS011;24301;54.332;48.386;2023-09-19T07:32:22;3.20;;;1.80;;
38529;SDS011;24301;54.332;48.386;2023-09-19T07:34:48;4.28;;;2.20;;
38529;SDS011;24301;54.332;48.386;2023-09-19T07:37:14;6.38;;;1.98;;
38529;SDS011;24301;54.332;48.386;2023-09-19T07:39:41;2.42;;;1.70;;
38529;SDS011;24301;54.332;48.386;2023-09-19T07:42:08;2.40;;;1.73;;
38529;SDS011;24301;54.332;48.386;2023-09-19T07:44:36;2.22;;;1.95;;
38529;SDS011;24301;54.332;48.386;2023-09-19T07:47:02;4.65;;;2.10;;
38529;SDS011;24301;54.332;48.386;2023-09-19T07:49:29;3.63;;;1.90;;
38529;SDS011;24301;54.332;48.386;2023-09-19T07:51:55;2.25;;;2.00;;
38529;SDS011;24301;54.332;48.386;2023-09-19T07:54:22;3.00;;;1.80;;
38529;SDS011;24301;54.332;48.386;2023-09-19T07:56:48;2.72;;;1.77;;
38529;SDS011;24301;54.332;48.386;2023-09-19T07:59:14;3.70;;;1.95;;
38529;SDS011;24301;54.332;48.386;2023-09-19T08:01:39;3.17;;;1.63;;
38529;SDS011;24301;54.332;48.386;2023-09-19T08:04:07;4.18;;;1.80;;
38529;SDS011;24301;54.332;48.386;2023-09-19T08:06:33;2.70;;;1.60;;
38529;SDS011;24301;54.332;48.386;2023-09-19T08:08:59;4.72;;;2.13;;
38529;SDS011;24301;54.332;48.386;2023-09-19T08:11:26;1.67;;;1.52;;
38529;SDS011;24301;54.332;48.386;2023-09-19T08:13:56;2.92;;;2.10;;
38529;SDS011;24301;54.332;48.386;2023-09-19T08:16:22;2.50;;;1.60;;
38529;SDS011;24301;54.332;48.386;2023-09-19T08:18:50;1.55;;;1.35;;
38529;SDS011;24301;54.332;48.386;2023-09-19T08:21:23;4.30;;;1.70;;
38529;SDS011;24301;54.332;48.386;2023-09-19T08:23:49;1.80;;;1.65;;
38529;SDS011;24301;54.332;48.386;2023-09-19T08:26:16;3.10;;;1.77;;
38529;SDS011;24301;54.332;48.386;2023-09-19T08:28:42;2.45;;;2.00;;
38529;SDS011;24301;54.332;48.386;2023-09-19T08:31:08;1.80;;;1.40;;
38529;SDS011;24301;54.332;48.386;2023-09-19T08:33:36;1.65;;;1.40;;
38529;SDS011;24301;54.332;48.386;2023-09-19T08:36:03;1.48;;;1.33;;
38529;SDS011;24301;54.332;48.386;2023-09-19T08:38:33;5.57;;;1.75;;
38529;SDS011;24301;54.332;48.386;2023-09-19T08:41:05;2.58;;;1.42;;
38529;SDS011;24301;54.332;48.386;2023-09-19T08:43:38;3.28;;;1.17;;
38529;SDS011;24301;54.332;48.386;2023-09-19T08:48:30;1.10;;;1.00;;
38529;SDS011;24301;54.332;48.386;2023-09-19T08:51:02;1.75;;;1.10;;
38529;SDS011;24301;54.332;48.386;2023-09-19T08:54:32;2.35;;;1.02;;
38529;SDS011;24301;54.332;48.386;2023-09-19T08:56:32;0.95;;;0.80;;
38529;SDS011;24301;54.332;48.386;2023-09-19T08:59:00;1.17;;;0.82;;
38529;SDS011;24301;54.332;48.386;2023-09-19T09:01:30;1.20;;;0.73;;
38529;SDS011;24301;54.332;48.386;2023-09-19T09:04:01;3.28;;;0.95;;
38529;SDS011;24301;54.332;48.386;2023-09-19T09:06:28;0.73;;;0.68;;
38529;SDS011;24301;54.332;48.386;2023-09-19T09:08:59;0.93;;;0.73;;
38529;SDS011;24301;54.332;48.386;2023-09-19T09:11:26;1.58;;;0.60;;
38529;SDS011;24301;54.332;48.386;2023-09-19T09:13:53;0.60;;;0.60;;
38529;SDS011;24301;54.332;48.386;2023-09-19T09:16:19;1.27;;;0.60;;
38529;SDS011;24301;54.332;48.386;2023-09-19T09:18:45;1.95;;;0.80;;
38529;SDS011;24301;54.332;48.386;2023-09-19T09:21:18;3.97;;;0.60;;
38529;SDS011;24301;54.332;48.386;2023-09-19T09:23:47;1.25;;;0.60;;
38529;SDS011;24301;54.332;48.386;2023-09-19T09:26:15;1.58;;;0.68;;
38529;SDS011;24301;54.332;48.386;2023-09-19T09:28:45;1.00;;;0.90;;
38529;SDS011;24301;54.332;48.386;2023-09-19T09:31:32;1.25;;;0.75;;
38529;SDS011;24301;54.332;48.386;2023-09-19T09:33:58;1.27;;;0.52;;
38529;SDS011;24301;54.332;48.386;2023-09-19T09:36:37;2.72;;;0.60;;
38529;SDS011;24301;54.332;48.386;2023-09-19T09:39:08;0.73;;;0.70;;
38529;SDS011;24301;54.332;48.386;2023-09-19T09:41:51;0.60;;;0.60;;
38529;SDS011;24301;54.332;48.386;2023-09-19T09:44:17;0.70;;;0.70;;
38529;SDS011;24301;54.332;48.386;2023-09-19T09:46:45;0.80;;;0.80;;
38529;SDS011;24301;54.332;48.386;2023-09-19T09:49:18;0.82;;;0.75;;
38529;SDS011;24301;54.332;48.386;2023-09-19T09:54:32;1.45;;;0.70;;
38529;SDS011;24301;54.332;48.386;2023-09-19T09:57:09;1.98;;;1.00;;
38529;SDS011;24301;54.332;48.386;2023-09-19T10:02:18;0.75;;;0.75;;
38529;SDS011;24301;54.332;48.386;2023-09-19T10:04:51;1.40;;;0.82;;
38529;SDS011;24301;54.332;48.386;2023-09-19T10:07:28;5.70;;;2.28;;
38529;SDS011;24301;54.332;48.386;2023-09-19T10:09:59;2.25;;;1.00;;
38529;SDS011;24301;54.332;48.386;2023-09-19T10:12:31;0.80;;;0.80;;
38529;SDS011;24301;54.332;48.386;2023-09-19T10:15:00;1.15;;;0.80;;
38529;SDS011;24301;54.332;48.386;2023-09-19T10:17:30;1.02;;;0.70;;
38529;SDS011;24301;54.332;48.386;2023-09-19T10:20:02;1.98;;;1.13;;
38529;SDS011;24301;54.332;48.386;2023-09-19T10:23:23;0.60;;;0.60;;
38529;SDS011;24301;54.332;48.386;2023-09-19T10:26:03;0.80;;;0.75;;
38529;SDS011;24301;54.332;48.386;2023-09-19T10:28:36;0.73;;;0.70;;
38529;SDS011;24301;54.332;48.386;2023-09-19T10:31:09;1.15;;;0.70;;
38529;SDS011;24301;54.332;48.386;2023-09-19T10:34:47;1.23;;;0.90;;
38529;SDS011;24301;54.332;48.386;2023-09-19T10:40:53;0.80;;;0.80;;
38529;SDS011;24301;54.332;48.386;2023-09-19T10:51:12;2.42;;;0.70;;
38529;SDS011;24301;54.332;48.386;2023-09-19T10:54:37;0.50;;;0.50;;
38529;SDS011;24301;54.332;48.386;2023-09-19T10:57:07;1.00;;;0.75;;
38529;SDS011;24301;54.332;48.386;2023-09-19T10:59:35;0.70;;;0.70;;
38529;SDS011;24301;54.332;48.386;2023-09-19T11:02:15;0.80;;;0.77;;
38529;SDS011;24301;54.332;48.386;2023-09-19T11:04:44;1.92;;;0.50;;
38529;SDS011;24301;54.332;48.386;2023-09-19T11:07:13;0.82;;;0.80;;
38529;SDS011;24301;54.332;48.386;2023-09-19T11:09:44;2.03;;;1.25;;
38529;SDS011;24301;54.332;48.386;2023-09-19T11:14:58;2.45;;;0.90;;
38529;SDS011;24301;54.332;48.386;2023-09-19T11:17:31;2.00;;;1.10;;
38529;SDS011;24301;54.332;48.386;2023-09-19T11:30:32;0.98;;;0.80;;
38529;SDS011;24301;54.332;48.386;2023-09-19T11:36:34;0.87;;;0.70;;
38529;SDS011;24301;54.332;48.386;2023-09-19T11:39:03;1.85;;;0.88;;
38529;SDS011;24301;54.332;48.386;2023-09-19T11:52:22;1.10;;;0.90;;
38529;SDS011;24301;54.332;48.386;2023-09-19T11:55:02;0.75;;;0.60;;
38529;SDS011;24301;54.332;48.386;2023-09-19T11:57:36;0.82;;;0.80;;
38529;SDS011;24301;54.332;48.386;2023-09-19T12:00:53;3.17;;;1.00;;
38529;SDS011;24301;54.332;48.386;2023-09-19T12:04:15;2.97;;;0.82;;
38529;SDS011;24301;54.332;48.386;2023-09-19T12:06:59;2.15;;;0.95;;
38529;SDS011;24301;54.332;48.386;2023-09-19T12:09:33;1.15;;;1.00;;
38529;SDS011;24301;54.332;48.386;2023-09-19T12:12:33;1.05;;;0.93;;
38529;SDS011;24301;54.332;48.386;2023-09-19T12:18:26;1.08;;;0.82;;
38529;SDS011;24301;54.332;48.386;2023-09-19T12:24:19;1.38;;;1.25;;
38529;SDS011;24301;54.332;48.386;2023-09-19T12:33:39;1.13;;;1.05;;
38529;SDS011;24301;54.332;48.386;2023-09-19T12:39:25;1.45;;;1.00;;
38529;SDS011;24301;54.332;48.386;2023-09-19T12:42:05;7.28;;;1.20;;
38529;SDS011;24301;54.332;48.386;2023-09-19T12:44:41;1.10;;;0.93;;
38529;SDS011;24301;54.332;48.386;2023-09-19T12:47:17;1.48;;;0.80;;
38529;SDS011;24301;54.332;48.386;2023-09-19T12:50:08;1.67;;;1.08;;
38529;SDS011;24301;54.332;48.386;2023-09-19T12:53:04;1.90;;;0.80;;
38529;SDS011;24301;54.332;48.386;2023-09-19T12:55:30;2.97;;;0.98;;
38529;SDS011;24301;54.332;48.386;2023-09-19T13:00:34;2.83;;;1.58;;
38529;SDS011;24301;54.332;48.386;2023-09-19T13:06:00;3.55;;;1.75;;
38529;SDS011;24301;54.332;48.386;2023-09-19T13:08:30;2.75;;;1.35;;
38529;SDS011;24301;54.332;48.386;2023-09-19T13:13:47;3.17;;;1.00;;
38529;SDS011;24301;54.332;48.386;2023-09-19T13:16:19;2.17;;;0.90;;
38529;SDS011;24301;54.332;48.386;2023-09-19T13:18:52;1.15;;;0.98;;
38529;SDS011;24301;54.332;48.386;2023-09-19T13:21:29;2.65;;;0.90;;
38529;SDS011;24301;54.332;48.386;2023-09-19T13:24:18;0.60;;;0.60;;
38529;SDS011;24301;54.332;48.386;2023-09-19T13:26:46;1.20;;;1.05;;
38529;SDS011;24301;54.332;48.386;2023-09-19T13:29:12;1.25;;;1.00;;
38529;SDS011;24301;54.332;48.386;2023-09-19T13:31:39;1.15;;;1.05;;
38529;SDS011;24301;54.332;48.386;2023-09-19T13:34:07;1.30;;;1.00;;
38529;SDS011;24301;54.332;48.386;2023-09-19T13:36:33;1.98;;;0.90;;
38529;SDS011;24301;54.332;48.386;2023-09-19T13:38:59;1.75;;;0.80;;
38529;SDS011;24301;54.332;48.386;2023-09-19T13:41:25;1.20;;;1.10;;
38529;SDS011;24301;54.332;48.386;2023-09-19T13:43:51;1.65;;;0.82;;
38529;SDS011;24301;54.332;48.386;2023-09-19T13:46:21;2.42;;;0.95;;
38529;SDS011;24301;54.332;48.386;2023-09-19T13:48:54;1.00;;;0.73;;
38529;SDS011;24301;54.332;48.386;2023-09-19T13:51:20;3.42;;;1.10;;
38529;SDS011;24301;54.332;48.386;2023-09-19T13:53:50;1.05;;;0.88;;
38529;SDS011;24301;54.332;48.386;2023-09-19T13:56:16;1.92;;;0.88;;
38529;SDS011;24301;54.332;48.386;2023-09-19T13:58:42;0.82;;;0.73;;
38529;SDS011;24301;54.332;48.386;2023-09-19T14:01:08;2.55;;;1.17;;
38529;SDS011;24301;54.332;48.386;2023-09-19T14:03:41;2.80;;;1.35;;
38529;SDS011;24301;54.332;48.386;2023-09-19T14:06:12;3.45;;;1.20;;
38529;SDS011;24301;54.332;48.386;2023-09-19T14:08:39;2.08;;;1.00;;
38529;SDS011;24301;54.332;48.386;2023-09-19T14:11:08;1.10;;;1.00;;
38529;SDS011;24301;54.332;48.386;2023-09-19T14:13:34;1.45;;;0.80;;
38529;SDS011;24301;54.332;48.386;2023-09-19T14:16:04;0.98;;;0.90;;
38529;SDS011;24301;54.332;48.386;2023-09-19T14:18:31;1.65;;;0.80;;
38529;SDS011;24301;54.332;48.386;2023-09-19T14:21:06;1.45;;;1.10;;
38529;SDS011;24301;54.332;48.386;2023-09-19T14:23:39;1.23;;;0.85;;
38529;SDS011;24301;54.332;48.386;2023-09-19T14:26:08;2.03;;;0.93;;
38529;SDS011;24301;54.332;48.386;2023-09-19T14:28:34;1.67;;;1.10;;
38529;SDS011;24301;54.332;48.386;2023-09-19T14:31:07;2.38;;;1.00;;
38529;SDS011;24301;54.332;48.386;2023-09-19T14:33:34;1.45;;;1.10;;
38529;SDS011;24301;54.332;48.386;2023-09-19T14:36:07;1.17;;;1.05;;
38529;SDS011;24301;54.332;48.386;2023-09-19T14:38:35;2.38;;;0.82;;
38529;SDS011;24301;54.332;48.386;2023-09-19T14:41:03;2.45;;;1.08;;
38529;SDS011;24301;54.332;48.386;2023-09-19T14:43:30;1.58;;;1.17;;
38529;SDS011;24301;54.332;48.386;2023-09-19T14:46:19;1.48;;;1.23;;
38529;SDS011;24301;54.332;48.386;2023-09-19T14:49:20;1.33;;;0.90;;
38529;SDS011;24301;54.332;48.386;2023-09-19T14:51:51;1.25;;;0.93;;
38529;SDS011;24301;54.332;48.386;2023-09-19T14:54:18;1.88;;;1.05;;
38529;SDS011;24301;54.332;48.386;2023-09-19T14:56:52;2.08;;;1.08;;
38529;SDS011;24301;54.332;48.386;2023-09-19T14:59:32;3.50;;;1.10;;
38529;SDS011;24301;54.332;48.386;2023-09-19T15:02:03;2.47;;;1.08;;
38529;SDS011;24301;54.332;48.386;2023-09-19T15:04:29;1.25;;;0.93;;
38529;SDS011;24301;54.332;48.386;2023-09-19T15:06:55;2.33;;;1.30;;
38529;SDS011;24301;54.332;48.386;2023-09-19T15:09:22;1.40;;;1.00;;
38529;SDS011;24301;54.332;48.386;2023-09-19T15:11:52;1.30;;;1.00;;
38529;SDS011;24301;54.332;48.386;2023-09-19T15:14:19;2.08;;;1.15;;
38529;SDS011;24301;54.332;48.386;2023-09-19T15:16:58;1.23;;;1.10;;
38529;SDS011;24301;54.332;48.386;2023-09-19T15:23:35;1.50;;;0.95;;
38529;SDS011;24301;54.332;48.386;2023-09-19T15:26:05;1.70;;;0.90;;
38529;SDS011;24301;54.332;48.386;2023-09-19T15:28:35;1.13;;;0.98;;
38529;SDS011;24301;54.332;48.386;2023-09-19T15:31:09;2.45;;;1.23;;
38529;SDS011;24301;54.332;48.386;2023-09-19T15:33:36;2.03;;;1.50;;
38529;SDS011;24301;54.332;48.386;2023-09-19T15:36:10;2.92;;;1.40;;
38529;SDS011;24301;54.332;48.386;2023-09-19T15:38:54;1.75;;;1.27;;
38529;SDS011;24301;54.332;48.386;2023-09-19T15:41:28;3.28;;;1.92;;
38529;SDS011;24301;54.332;48.386;2023-09-19T15:43:54;7.40;;;2.35;;
38529;SDS011;24301;54.332;48.386;2023-09-19T15:46:21;3.15;;;1.50;;
38529;SDS011;24301;54.332;48.386;2023-09-19T15:48:48;1.40;;;1.10;;
38529;SDS011;24301;54.332;48.386;2023-09-19T15:51:15;2.45;;;1.35;;
38529;SDS011;24301;54.332;48.386;2023-09-19T15:53:44;5.57;;;1.80;;
38529;SDS011;24301;54.332;48.386;2023-09-19T15:56:11;2.92;;;1.60;;
38529;SDS011;24301;54.332;48.386;2023-09-19T15:58:37;1.45;;;0.98;;
38529;SDS011;24301;54.332;48.386;2023-09-19T16:01:07;2.85;;;1.70;;
38529;SDS011;24301;54.332;48.386;2023-09-19T16:03:38;2.85;;;1.10;;
38529;SDS011;24301;54.332;48.386;2023-09-19T16:06:15;1.55;;;1.13;;
38529;SDS011;24301;54.332;48.386;2023-09-19T16:08:47;3.92;;;1.75;;
38529;SDS011;24301;54.332;48.386;2023-09-19T16:11:14;2.03;;;1.55;;
38529;SDS011;24301;54.332;48.386;2023-09-19T16:13:41;2.22;;;1.50;;
38529;SDS011;24301;54.332;48.386;2023-09-19T16:16:08;1.60;;;1.45;;
38529;SDS011;24301;54.332;48.386;2023-09-19T16:18:38;3.30;;;1.92;;
38529;SDS011;24301;54.332;48.386;2023-09-19T16:21:08;3.42;;;1.77;;
38529;SDS011;24301;54.332;48.386;2023-09-19T16:23:34;2.83;;;1.73;;
38529;SDS011;24301;54.332;48.386;2023-09-19T16:26:04;3.13;;;1.52;;
38529;SDS011;24301;54.332;48.386;2023-09-19T16:28:32;1.70;;;1.60;;
38529;SDS011;24301;54.332;48.386;2023-09-19T16:31:03;2.17;;;1.10;;
38529;SDS011;24301;54.332;48.386;2023-09-19T16:33:33;1.55;;;1.25;;
38529;SDS011;24301;54.332;48.386;2023-09-19T16:36:02;2.40;;;1.40;;
38529;SDS011;24301;54.332;48.386;2023-09-19T16:38:39;2.08;;;1.33;;
38529;SDS011;24301;54.332;48.386;2023-09-19T16:41:05;1.08;;;0.93;;